sensor_id;sensor_type;location;lat;lon;timestamp;P1;durP1;ratioP1;P2;durP2;ratioP2
30998;SDS011;20549;50.042;8.968;2022-10-04T00:01:56;7.63;;;5.20;;
30998;SDS011;20549;50.042;8.968;2022-10-04T00:04:25;6.50;;;5.40;;
30998;SDS011;20549;50.042;8.968;2022-10-04T00:06:54;5.77;;;4.77;;
30998;SDS011;20549;50.042;8.968;2022-10-04T00:09:25;36.80;;;7.23;;
30998;SDS011;20549;50.042;8.968;2022-10-04T00:11:50;22.70;;;6.10;;
30998;SDS011;20549;50.042;8.968;2022-10-04T00:14:21;23.17;;;6.50;;
30998;SDS011;20549;50.042;8.968;2022-10-04T00:17:06;23.00;;;6.00;;
30998;SDS011;20549;50.042;8.968;2022-10-04T00:19:39;48.80;;;7.80;;
30998;SDS011;20549;50.042;8.968;2022-10-04T00:24:33;31.10;;;5.70;;
30998;SDS011;20549;50.042;8.968;2022-10-04T00:27:09;39.40;;;6.83;;
30998;SDS011;20549;50.042;8.968;2022-10-04T00:30:12;27.83;;;6.20;;
30998;SDS011;20549;50.042;8.968;2022-10-04T00:32:29;30.73;;;6.50;;
30998;SDS011;20549;50.042;8.968;2022-10-04T00:40:30;38.77;;;6.63;;
30998;SDS011;20549;50.042;8.968;2022-10-04T00:43:12;17.30;;;5.40;;
30998;SDS011;20549;50.042;8.968;2022-10-04T00:45:36;45.07;;;7.03;;
30998;SDS011;20549;50.042;8.968;2022-10-04T00:50:38;86.60;;;11.40;;
30998;SDS011;20549;50.042;8.968;2022-10-04T00:53:11;57.57;;;7.73;;
30998;SDS011;20549;50.042;8.968;2022-10-04T00:55:42;54.50;;;7.03;;
30998;SDS011;20549;50.042;8.968;2022-10-04T00:58:07;29.57;;;5.47;;
30998;SDS011;20549;50.042;8.968;2022-10-04T01:00:32;16.50;;;4.80;;
30998;SDS011;20549;50.042;8.968;2022-10-04T01:03:13;12.13;;;5.20;;
30998;SDS011;20549;50.042;8.968;2022-10-04T01:05:41;8.37;;;4.70;;
30998;SDS011;20549;50.042;8.968;2022-10-04T01:08:08;29.73;;;6.73;;
30998;SDS011;20549;50.042;8.968;2022-10-04T01:10:44;17.70;;;5.73;;
30998;SDS011;20549;50.042;8.968;2022-10-04T01:13:16;11.80;;;4.83;;
30998;SDS011;20549;50.042;8.968;2022-10-04T01:18:27;16.67;;;5.17;;
30998;SDS011;20549;50.042;8.968;2022-10-04T01:20:54;30.90;;;6.83;;
30998;SDS011;20549;50.042;8.968;2022-10-04T01:26:34;22.53;;;6.23;;
30998;SDS011;20549;50.042;8.968;2022-10-04T01:28:34;12.13;;;5.83;;
30998;SDS011;20549;50.042;8.968;2022-10-04T01:31:00;20.63;;;6.20;;
30998;SDS011;20549;50.042;8.968;2022-10-04T01:33:27;16.73;;;5.90;;
30998;SDS011;20549;50.042;8.968;2022-10-04T01:35:54;15.20;;;5.70;;
30998;SDS011;20549;50.042;8.968;2022-10-04T01:38:20;18.10;;;5.30;;
30998;SDS011;20549;50.042;8.968;2022-10-04T01:40:50;14.57;;;4.67;;
30998;SDS011;20549;50.042;8.968;2022-10-04T01:43:15;18.13;;;5.53;;
30998;SDS011;20549;50.042;8.968;2022-10-04T01:45:47;18.33;;;5.33;;
30998;SDS011;20549;50.042;8.968;2022-10-04T01:48:17;17.43;;;4.73;;
30998;SDS011;20549;50.042;8.968;2022-10-04T01:50:58;13.43;;;4.93;;
30998;SDS011;20549;50.042;8.968;2022-10-04T01:53:30;12.77;;;4.90;;
30998;SDS011;20549;50.042;8.968;2022-10-04T01:56:03;8.73;;;3.50;;
30998;SDS011;20549;50.042;8.968;2022-10-04T01:58:29;17.03;;;4.23;;
30998;SDS011;20549;50.042;8.968;2022-10-04T02:00:59;21.63;;;5.20;;
30998;SDS011;20549;50.042;8.968;2022-10-04T02:03:34;20.03;;;4.53;;
30998;SDS011;20549;50.042;8.968;2022-10-04T02:05:58;23.03;;;5.40;;
30998;SDS011;20549;50.042;8.968;2022-10-04T02:08:28;21.20;;;4.97;;
30998;SDS011;20549;50.042;8.968;2022-10-04T02:10:53;13.80;;;4.23;;
30998;SDS011;20549;50.042;8.968;2022-10-04T02:13:19;23.70;;;5.37;;
30998;SDS011;20549;50.042;8.968;2022-10-04T02:15:46;38.20;;;6.13;;
30998;SDS011;20549;50.042;8.968;2022-10-04T02:18:14;28.03;;;5.70;;
30998;SDS011;20549;50.042;8.968;2022-10-04T02:20:39;34.67;;;6.13;;
30998;SDS011;20549;50.042;8.968;2022-10-04T02:23:06;14.33;;;5.07;;
30998;SDS011;20549;50.042;8.968;2022-10-04T02:25:34;22.23;;;6.17;;
30998;SDS011;20549;50.042;8.968;2022-10-04T02:27:59;21.33;;;5.00;;
30998;SDS011;20549;50.042;8.968;2022-10-04T02:30:26;16.47;;;4.40;;
30998;SDS011;20549;50.042;8.968;2022-10-04T02:32:53;15.30;;;4.93;;
30998;SDS011;20549;50.042;8.968;2022-10-04T02:35:42;22.57;;;4.63;;
30998;SDS011;20549;50.042;8.968;2022-10-04T02:38:12;12.70;;;4.53;;
30998;SDS011;20549;50.042;8.968;2022-10-04T02:41:02;9.90;;;3.83;;
30998;SDS011;20549;50.042;8.968;2022-10-04T02:43:32;15.07;;;4.27;;
30998;SDS011;20549;50.042;8.968;2022-10-04T02:48:45;17.50;;;4.40;;
30998;SDS011;20549;50.042;8.968;2022-10-04T02:51:23;7.10;;;3.57;;
30998;SDS011;20549;50.042;8.968;2022-10-04T02:53:53;9.23;;;4.13;;
30998;SDS011;20549;50.042;8.968;2022-10-04T02:56:18;21.40;;;5.53;;
30998;SDS011;20549;50.042;8.968;2022-10-04T02:58:44;15.63;;;4.83;;
30998;SDS011;20549;50.042;8.968;2022-10-04T03:01:14;34.27;;;5.20;;
30998;SDS011;20549;50.042;8.968;2022-10-04T03:03:38;39.47;;;7.13;;
30998;SDS011;20549;50.042;8.968;2022-10-04T03:06:07;19.70;;;5.53;;
30998;SDS011;20549;50.042;8.968;2022-10-04T03:08:46;30.30;;;6.67;;
30998;SDS011;20549;50.042;8.968;2022-10-04T03:11:00;26.70;;;6.90;;
30998;SDS011;20549;50.042;8.968;2022-10-04T03:13:26;21.17;;;6.20;;
30998;SDS011;20549;50.042;8.968;2022-10-04T03:15:53;30.33;;;6.33;;
30998;SDS011;20549;50.042;8.968;2022-10-04T03:18:19;65.77;;;10.13;;
30998;SDS011;20549;50.042;8.968;2022-10-04T03:20:46;39.33;;;7.80;;
30998;SDS011;20549;50.042;8.968;2022-10-04T03:23:13;52.27;;;8.47;;
30998;SDS011;20549;50.042;8.968;2022-10-04T03:28:24;31.73;;;6.60;;
30998;SDS011;20549;50.042;8.968;2022-10-04T03:30:50;30.13;;;6.23;;
30998;SDS011;20549;50.042;8.968;2022-10-04T03:33:21;28.37;;;7.23;;
30998;SDS011;20549;50.042;8.968;2022-10-04T03:35:48;54.17;;;7.80;;
30998;SDS011;20549;50.042;8.968;2022-10-04T03:38:13;36.20;;;7.70;;
30998;SDS011;20549;50.042;8.968;2022-10-04T03:40:41;42.33;;;8.23;;
30998;SDS011;20549;50.042;8.968;2022-10-04T03:43:07;26.93;;;6.63;;
30998;SDS011;20549;50.042;8.968;2022-10-04T03:45:33;23.80;;;6.77;;
30998;SDS011;20549;50.042;8.968;2022-10-04T03:48:03;33.93;;;6.93;;
30998;SDS011;20549;50.042;8.968;2022-10-04T03:50:30;18.87;;;5.97;;
30998;SDS011;20549;50.042;8.968;2022-10-04T03:52:57;14.80;;;5.80;;
30998;SDS011;20549;50.042;8.968;2022-10-04T03:55:31;14.20;;;5.80;;
30998;SDS011;20549;50.042;8.968;2022-10-04T03:57:57;7.23;;;5.60;;
30998;SDS011;20549;50.042;8.968;2022-10-04T04:00:24;17.73;;;5.40;;
30998;SDS011;20549;50.042;8.968;2022-10-04T04:02:51;16.97;;;5.20;;
30998;SDS011;20549;50.042;8.968;2022-10-04T04:10:50;12.20;;;4.77;;
30998;SDS011;20549;50.042;8.968;2022-10-04T04:16:20;37.63;;;6.60;;
30998;SDS011;20549;50.042;8.968;2022-10-04T04:18:47;15.50;;;5.67;;
30998;SDS011;20549;50.042;8.968;2022-10-04T04:21:16;12.53;;;5.10;;
30998;SDS011;20549;50.042;8.968;2022-10-04T04:23:43;47.40;;;6.97;;
30998;SDS011;20549;50.042;8.968;2022-10-04T04:26:25;12.63;;;4.60;;
30998;SDS011;20549;50.042;8.968;2022-10-04T04:29:07;40.33;;;5.67;;
30998;SDS011;20549;50.042;8.968;2022-10-04T04:31:51;32.93;;;6.00;;
30998;SDS011;20549;50.042;8.968;2022-10-04T04:34:21;19.03;;;5.53;;
30998;SDS011;20549;50.042;8.968;2022-10-04T04:36:46;35.07;;;7.50;;
30998;SDS011;20549;50.042;8.968;2022-10-04T04:39:16;27.07;;;6.10;;
30998;SDS011;20549;50.042;8.968;2022-10-04T04:42:01;27.60;;;6.17;;
30998;SDS011;20549;50.042;8.968;2022-10-04T04:44:27;18.50;;;5.90;;
30998;SDS011;20549;50.042;8.968;2022-10-04T04:46:53;7.30;;;4.60;;
30998;SDS011;20549;50.042;8.968;2022-10-04T04:49:20;14.53;;;5.03;;
30998;SDS011;20549;50.042;8.968;2022-10-04T04:51:48;26.17;;;5.67;;
30998;SDS011;20549;50.042;8.968;2022-10-04T04:54:13;7.37;;;4.60;;
30998;SDS011;20549;50.042;8.968;2022-10-04T04:56:40;6.73;;;5.23;;
30998;SDS011;20549;50.042;8.968;2022-10-04T04:59:06;9.43;;;5.27;;
30998;SDS011;20549;50.042;8.968;2022-10-04T05:01:43;10.67;;;5.40;;
30998;SDS011;20549;50.042;8.968;2022-10-04T05:06:42;10.07;;;5.57;;
30998;SDS011;20549;50.042;8.968;2022-10-04T05:09:05;9.00;;;5.23;;
30998;SDS011;20549;50.042;8.968;2022-10-04T05:11:32;9.80;;;5.37;;
30998;SDS011;20549;50.042;8.968;2022-10-04T05:13:59;8.33;;;5.27;;
30998;SDS011;20549;50.042;8.968;2022-10-04T05:16:29;16.23;;;5.83;;
30998;SDS011;20549;50.042;8.968;2022-10-04T05:19:00;25.03;;;5.90;;
30998;SDS011;20549;50.042;8.968;2022-10-04T05:21:27;15.03;;;6.43;;
30998;SDS011;20549;50.042;8.968;2022-10-04T05:23:53;7.63;;;5.97;;
30998;SDS011;20549;50.042;8.968;2022-10-04T05:26:23;7.27;;;5.93;;
30998;SDS011;20549;50.042;8.968;2022-10-04T05:28:46;7.50;;;6.50;;
30998;SDS011;20549;50.042;8.968;2022-10-04T05:33:57;7.37;;;6.37;;
30998;SDS011;20549;50.042;8.968;2022-10-04T05:41:40;6.00;;;5.07;;
30998;SDS011;20549;50.042;8.968;2022-10-04T05:44:27;6.03;;;5.27;;
30998;SDS011;20549;50.042;8.968;2022-10-04T05:46:49;5.60;;;5.10;;
30998;SDS011;20549;50.042;8.968;2022-10-04T05:49:16;8.57;;;5.83;;
30998;SDS011;20549;50.042;8.968;2022-10-04T05:51:49;6.00;;;5.47;;
30998;SDS011;20549;50.042;8.968;2022-10-04T05:54:21;5.77;;;5.17;;
30998;SDS011;20549;50.042;8.968;2022-10-04T05:56:59;6.30;;;5.10;;
30998;SDS011;20549;50.042;8.968;2022-10-04T05:59:42;7.33;;;6.50;;
30998;SDS011;20549;50.042;8.968;2022-10-04T06:04:42;6.27;;;5.20;;
30998;SDS011;20549;50.042;8.968;2022-10-04T06:07:24;5.90;;;5.07;;
30998;SDS011;20549;50.042;8.968;2022-10-04T06:09:52;6.67;;;4.93;;
30998;SDS011;20549;50.042;8.968;2022-10-04T06:15:12;5.27;;;4.77;;
30998;SDS011;20549;50.042;8.968;2022-10-04T06:22:42;4.87;;;4.47;;
30998;SDS011;20549;50.042;8.968;2022-10-04T06:25:17;5.07;;;4.30;;
30998;SDS011;20549;50.042;8.968;2022-10-04T06:30:16;5.30;;;4.80;;
30998;SDS011;20549;50.042;8.968;2022-10-04T06:32:52;7.53;;;5.43;;
30998;SDS011;20549;50.042;8.968;2022-10-04T06:35:53;8.13;;;5.03;;
30998;SDS011;20549;50.042;8.968;2022-10-04T06:39:06;6.70;;;5.00;;
30998;SDS011;20549;50.042;8.968;2022-10-04T06:41:20;5.47;;;4.97;;
30998;SDS011;20549;50.042;8.968;2022-10-04T06:43:54;5.77;;;5.17;;
30998;SDS011;20549;50.042;8.968;2022-10-04T06:54:33;5.63;;;4.90;;
30998;SDS011;20549;50.042;8.968;2022-10-04T07:02:25;6.20;;;5.50;;
30998;SDS011;20549;50.042;8.968;2022-10-04T07:04:53;5.53;;;5.03;;
30998;SDS011;20549;50.042;8.968;2022-10-04T07:07:20;6.47;;;5.43;;
30998;SDS011;20549;50.042;8.968;2022-10-04T07:12:22;9.13;;;5.20;;
30998;SDS011;20549;50.042;8.968;2022-10-04T07:14:50;6.60;;;5.40;;
30998;SDS011;20549;50.042;8.968;2022-10-04T07:20:01;5.30;;;4.77;;
30998;SDS011;20549;50.042;8.968;2022-10-04T07:22:29;7.07;;;5.17;;
30998;SDS011;20549;50.042;8.968;2022-10-04T07:25:11;5.83;;;5.33;;
30998;SDS011;20549;50.042;8.968;2022-10-04T07:27:33;6.80;;;5.70;;
30998;SDS011;20549;50.042;8.968;2022-10-04T07:30:05;8.03;;;5.20;;
30998;SDS011;20549;50.042;8.968;2022-10-04T07:32:35;4.73;;;4.33;;
30998;SDS011;20549;50.042;8.968;2022-10-04T07:35:04;5.17;;;4.70;;
30998;SDS011;20549;50.042;8.968;2022-10-04T07:37:43;6.20;;;5.07;;
30998;SDS011;20549;50.042;8.968;2022-10-04T07:40:14;5.37;;;4.83;;
30998;SDS011;20549;50.042;8.968;2022-10-04T07:42:45;4.70;;;4.30;;
30998;SDS011;20549;50.042;8.968;2022-10-04T07:45:18;4.90;;;4.27;;
30998;SDS011;20549;50.042;8.968;2022-10-04T07:47:49;5.83;;;4.30;;
30998;SDS011;20549;50.042;8.968;2022-10-04T07:52:52;4.12;;;3.65;;
30998;SDS011;20549;50.042;8.968;2022-10-04T07:58:17;3.35;;;3.05;;
30998;SDS011;20549;50.042;8.968;2022-10-04T08:00:47;4.45;;;3.50;;
30998;SDS011;20549;50.042;8.968;2022-10-04T08:06:07;3.87;;;3.15;;
30998;SDS011;20549;50.042;8.968;2022-10-04T08:14:12;4.35;;;3.30;;
30998;SDS011;20549;50.042;8.968;2022-10-04T08:25:02;2.70;;;2.47;;
30998;SDS011;20549;50.042;8.968;2022-10-04T08:30:49;2.67;;;2.47;;
30998;SDS011;20549;50.042;8.968;2022-10-04T08:36:08;5.70;;;2.35;;
30998;SDS011;20549;50.042;8.968;2022-10-04T08:38:35;3.15;;;2.67;;
30998;SDS011;20549;50.042;8.968;2022-10-04T08:49:08;4.17;;;2.60;;
30998;SDS011;20549;50.042;8.968;2022-10-04T08:54:41;3.87;;;2.50;;
30998;SDS011;20549;50.042;8.968;2022-10-04T08:59:53;3.98;;;2.30;;
30998;SDS011;20549;50.042;8.968;2022-10-04T09:03:06;2.95;;;2.33;;
30998;SDS011;20549;50.042;8.968;2022-10-04T09:10:44;1.98;;;1.82;;
30998;SDS011;20549;50.042;8.968;2022-10-04T09:16:07;2.50;;;2.30;;
30998;SDS011;20549;50.042;8.968;2022-10-04T09:18:41;2.72;;;1.80;;
30998;SDS011;20549;50.042;8.968;2022-10-04T09:24:08;1.95;;;1.72;;
30998;SDS011;20549;50.042;8.968;2022-10-04T09:26:50;4.03;;;2.00;;
30998;SDS011;20549;50.042;8.968;2022-10-04T09:29:33;3.52;;;1.60;;
30998;SDS011;20549;50.042;8.968;2022-10-04T09:32:03;2.45;;;1.87;;
30998;SDS011;20549;50.042;8.968;2022-10-04T09:37:01;6.40;;;1.67;;
30998;SDS011;20549;50.042;8.968;2022-10-04T09:39:44;1.92;;;1.55;;
30998;SDS011;20549;50.042;8.968;2022-10-04T09:44:52;2.87;;;1.60;;
30998;SDS011;20549;50.042;8.968;2022-10-04T09:50:08;2.15;;;1.40;;
30998;SDS011;20549;50.042;8.968;2022-10-04T09:52:51;4.50;;;1.85;;
30998;SDS011;20549;50.042;8.968;2022-10-04T10:06:45;1.92;;;1.55;;
30998;SDS011;20549;50.042;8.968;2022-10-04T10:14:59;2.17;;;1.55;;
30998;SDS011;20549;50.042;8.968;2022-10-04T10:17:42;1.87;;;1.50;;
30998;SDS011;20549;50.042;8.968;2022-10-04T10:22:52;2.15;;;1.67;;
30998;SDS011;20549;50.042;8.968;2022-10-04T10:28:34;2.20;;;1.80;;
30998;SDS011;20549;50.042;8.968;2022-10-04T10:33:35;5.28;;;1.47;;
30998;SDS011;20549;50.042;8.968;2022-10-04T10:47:03;2.12;;;1.60;;
30998;SDS011;20549;50.042;8.968;2022-10-04T10:49:46;2.20;;;1.45;;
30998;SDS011;20549;50.042;8.968;2022-10-04T10:55:11;3.17;;;2.00;;
30998;SDS011;20549;50.042;8.968;2022-10-04T10:58:11;3.25;;;1.70;;
30998;SDS011;20549;50.042;8.968;2022-10-04T11:00:51;1.30;;;1.20;;
30998;SDS011;20549;50.042;8.968;2022-10-04T11:09:27;2.22;;;1.57;;
30998;SDS011;20549;50.042;8.968;2022-10-04T11:14:29;2.05;;;1.50;;
30998;SDS011;20549;50.042;8.968;2022-10-04T11:19:54;1.75;;;1.40;;
30998;SDS011;20549;50.042;8.968;2022-10-04T11:33:28;2.05;;;1.70;;
30998;SDS011;20549;50.042;8.968;2022-10-04T11:38:48;2.22;;;1.57;;
30998;SDS011;20549;50.042;8.968;2022-10-04T11:49:38;1.92;;;1.50;;
30998;SDS011;20549;50.042;8.968;2022-10-04T11:58:47;2.22;;;1.62;;
30998;SDS011;20549;50.042;8.968;2022-10-04T12:01:11;2.75;;;1.62;;
30998;SDS011;20549;50.042;8.968;2022-10-04T12:09:21;2.83;;;2.00;;
30998;SDS011;20549;50.042;8.968;2022-10-04T12:14:46;1.92;;;1.65;;
30998;SDS011;20549;50.042;8.968;2022-10-04T12:17:34;1.62;;;1.35;;
30998;SDS011;20549;50.042;8.968;2022-10-04T12:23:26;1.98;;;1.42;;
30998;SDS011;20549;50.042;8.968;2022-10-04T12:31:30;1.95;;;1.60;;
30998;SDS011;20549;50.042;8.968;2022-10-04T12:34:16;1.67;;;1.57;;
30998;SDS011;20549;50.042;8.968;2022-10-04T12:37:15;1.75;;;1.60;;
30998;SDS011;20549;50.042;8.968;2022-10-04T12:42:44;1.40;;;1.30;;
30998;SDS011;20549;50.042;8.968;2022-10-04T12:48:13;4.05;;;1.90;;
30998;SDS011;20549;50.042;8.968;2022-10-04T12:56:01;4.95;;;1.70;;
30998;SDS011;20549;50.042;8.968;2022-10-04T13:01:59;1.95;;;1.60;;
30998;SDS011;20549;50.042;8.968;2022-10-04T13:04:33;1.57;;;1.17;;
30998;SDS011;20549;50.042;8.968;2022-10-04T13:15:13;2.10;;;1.80;;
30998;SDS011;20549;50.042;8.968;2022-10-04T13:23:01;1.10;;;1.10;;
30998;SDS011;20549;50.042;8.968;2022-10-04T13:28:01;1.42;;;1.32;;
30998;SDS011;20549;50.042;8.968;2022-10-04T13:30:28;1.45;;;1.27;;
30998;SDS011;20549;50.042;8.968;2022-10-04T13:33:23;1.82;;;1.30;;
30998;SDS011;20549;50.042;8.968;2022-10-04T13:42:04;2.22;;;1.50;;
30998;SDS011;20549;50.042;8.968;2022-10-04T13:52:54;1.90;;;1.65;;
30998;SDS011;20549;50.042;8.968;2022-10-04T13:56:36;1.55;;;1.32;;
30998;SDS011;20549;50.042;8.968;2022-10-04T13:58:43;2.92;;;1.30;;
30998;SDS011;20549;50.042;8.968;2022-10-04T14:06:35;1.72;;;1.32;;
30998;SDS011;20549;50.042;8.968;2022-10-04T14:10:14;2.33;;;1.75;;
30998;SDS011;20549;50.042;8.968;2022-10-04T14:12:10;2.33;;;1.55;;
30998;SDS011;20549;50.042;8.968;2022-10-04T14:23:19;2.40;;;1.57;;
30998;SDS011;20549;50.042;8.968;2022-10-04T14:28:25;2.22;;;1.60;;
30998;SDS011;20549;50.042;8.968;2022-10-04T14:39:08;2.80;;;1.65;;
30998;SDS011;20549;50.042;8.968;2022-10-04T14:41:51;3.17;;;1.60;;
30998;SDS011;20549;50.042;8.968;2022-10-04T14:47:06;1.57;;;1.47;;
30998;SDS011;20549;50.042;8.968;2022-10-04T14:55:09;2.30;;;1.62;;
30998;SDS011;20549;50.042;8.968;2022-10-04T15:03:26;2.52;;;1.50;;
30998;SDS011;20549;50.042;8.968;2022-10-04T15:10:55;2.87;;;1.60;;
30998;SDS011;20549;50.042;8.968;2022-10-04T15:13:24;1.67;;;1.57;;
30998;SDS011;20549;50.042;8.968;2022-10-04T15:15:59;1.87;;;1.60;;
30998;SDS011;20549;50.042;8.968;2022-10-04T15:23:53;2.67;;;1.60;;
30998;SDS011;20549;50.042;8.968;2022-10-04T15:52:22;1.80;;;1.40;;
30998;SDS011;20549;50.042;8.968;2022-10-04T15:57:54;3.08;;;1.75;;
30998;SDS011;20549;50.042;8.968;2022-10-04T16:00:23;2.85;;;1.50;;
30998;SDS011;20549;50.042;8.968;2022-10-04T16:03:07;1.90;;;1.60;;
30998;SDS011;20549;50.042;8.968;2022-10-04T16:05:58;2.72;;;1.75;;
30998;SDS011;20549;50.042;8.968;2022-10-04T16:11:15;2.25;;;1.60;;
30998;SDS011;20549;50.042;8.968;2022-10-04T16:13:47;2.50;;;1.87;;
30998;SDS011;20549;50.042;8.968;2022-10-04T16:18:57;4.25;;;1.82;;
30998;SDS011;20549;50.042;8.968;2022-10-04T16:29:23;1.95;;;1.80;;
30998;SDS011;20549;50.042;8.968;2022-10-04T16:32:00;1.72;;;1.62;;
30998;SDS011;20549;50.042;8.968;2022-10-04T16:34:28;3.90;;;2.00;;
30998;SDS011;20549;50.042;8.968;2022-10-04T16:42:34;2.27;;;1.80;;
30998;SDS011;20549;50.042;8.968;2022-10-04T16:45:23;2.72;;;1.75;;
30998;SDS011;20549;50.042;8.968;2022-10-04T16:47:32;3.17;;;2.05;;
30998;SDS011;20549;50.042;8.968;2022-10-04T16:49:58;4.05;;;1.87;;
30998;SDS011;20549;50.042;8.968;2022-10-04T16:52:33;1.80;;;1.65;;
30998;SDS011;20549;50.042;8.968;2022-10-04T16:55:06;1.80;;;1.70;;
30998;SDS011;20549;50.042;8.968;2022-10-04T16:57:28;3.67;;;2.12;;
30998;SDS011;20549;50.042;8.968;2022-10-04T16:59:56;2.25;;;1.70;;
30998;SDS011;20549;50.042;8.968;2022-10-04T17:02:46;1.80;;;1.70;;
30998;SDS011;20549;50.042;8.968;2022-10-04T17:10:34;2.35;;;1.87;;
30998;SDS011;20549;50.042;8.968;2022-10-04T17:24:01;4.92;;;1.87;;
30998;SDS011;20549;50.042;8.968;2022-10-04T17:28:55;2.80;;;2.58;;
30998;SDS011;20549;50.042;8.968;2022-10-04T17:31:25;2.55;;;2.20;;
30998;SDS011;20549;50.042;8.968;2022-10-04T17:36:46;3.45;;;2.77;;
30998;SDS011;20549;50.042;8.968;2022-10-04T17:39:38;6.30;;;3.45;;
30998;SDS011;20549;50.042;8.968;2022-10-04T17:42:25;4.25;;;3.33;;
30998;SDS011;20549;50.042;8.968;2022-10-04T17:47:44;4.25;;;2.83;;
30998;SDS011;20549;50.042;8.968;2022-10-04T17:50:46;4.90;;;2.83;;
30998;SDS011;20549;50.042;8.968;2022-10-04T17:53:40;3.30;;;2.60;;
30998;SDS011;20549;50.042;8.968;2022-10-04T17:56:35;3.83;;;2.30;;
30998;SDS011;20549;50.042;8.968;2022-10-04T17:59:15;2.87;;;2.10;;
30998;SDS011;20549;50.042;8.968;2022-10-04T18:01:43;4.03;;;2.50;;
30998;SDS011;20549;50.042;8.968;2022-10-04T18:06:42;2.30;;;2.10;;
30998;SDS011;20549;50.042;8.968;2022-10-04T18:09:30;2.03;;;1.83;;
30998;SDS011;20549;50.042;8.968;2022-10-04T18:12:02;3.37;;;2.20;;
30998;SDS011;20549;50.042;8.968;2022-10-04T18:17:37;2.77;;;2.50;;
30998;SDS011;20549;50.042;8.968;2022-10-04T18:22:59;5.53;;;2.60;;
30998;SDS011;20549;50.042;8.968;2022-10-04T18:25:26;4.17;;;2.83;;
30998;SDS011;20549;50.042;8.968;2022-10-04T18:28:03;3.15;;;2.55;;
30998;SDS011;20549;50.042;8.968;2022-10-04T18:30:28;7.03;;;4.20;;
30998;SDS011;20549;50.042;8.968;2022-10-04T18:32:54;28.45;;;7.25;;
30998;SDS011;20549;50.042;8.968;2022-10-04T18:35:22;11.00;;;4.47;;
30998;SDS011;20549;50.042;8.968;2022-10-04T18:38:12;10.77;;;4.10;;
30998;SDS011;20549;50.042;8.968;2022-10-04T18:42:56;6.77;;;4.23;;
30998;SDS011;20549;50.042;8.968;2022-10-04T18:45:23;3.37;;;3.07;;
30998;SDS011;20549;50.042;8.968;2022-10-04T18:47:48;3.00;;;2.70;;
30998;SDS011;20549;50.042;8.968;2022-10-04T18:50:37;2.80;;;2.20;;
30998;SDS011;20549;50.042;8.968;2022-10-04T18:58:25;2.97;;;2.50;;
30998;SDS011;20549;50.042;8.968;2022-10-04T19:04:31;2.80;;;2.40;;
30998;SDS011;20549;50.042;8.968;2022-10-04T19:06:58;2.47;;;2.20;;
30998;SDS011;20549;50.042;8.968;2022-10-04T19:09:42;3.97;;;3.07;;
30998;SDS011;20549;50.042;8.968;2022-10-04T19:12:02;2.93;;;2.53;;
30998;SDS011;20549;50.042;8.968;2022-10-04T19:17:05;3.10;;;2.72;;
30998;SDS011;20549;50.042;8.968;2022-10-04T19:26:23;6.53;;;3.40;;
30998;SDS011;20549;50.042;8.968;2022-10-04T19:28:18;2.83;;;2.63;;
30998;SDS011;20549;50.042;8.968;2022-10-04T19:31:03;3.93;;;2.63;;
30998;SDS011;20549;50.042;8.968;2022-10-04T19:34:07;4.03;;;2.60;;
30998;SDS011;20549;50.042;8.968;2022-10-04T19:36:30;2.90;;;2.70;;
30998;SDS011;20549;50.042;8.968;2022-10-04T19:38:58;6.80;;;3.60;;
30998;SDS011;20549;50.042;8.968;2022-10-04T19:41:37;4.03;;;2.87;;
30998;SDS011;20549;50.042;8.968;2022-10-04T19:46:59;2.97;;;2.77;;
30998;SDS011;20549;50.042;8.968;2022-10-04T19:49:43;3.73;;;3.10;;
30998;SDS011;20549;50.042;8.968;2022-10-04T19:54:43;4.60;;;3.00;;
30998;SDS011;20549;50.042;8.968;2022-10-04T19:57:12;3.87;;;3.10;;
30998;SDS011;20549;50.042;8.968;2022-10-04T19:59:39;3.67;;;3.20;;
30998;SDS011;20549;50.042;8.968;2022-10-04T20:02:08;4.00;;;3.13;;
30998;SDS011;20549;50.042;8.968;2022-10-04T20:04:35;4.77;;;3.33;;
30998;SDS011;20549;50.042;8.968;2022-10-04T20:07:02;14.40;;;4.70;;
30998;SDS011;20549;50.042;8.968;2022-10-04T20:12:26;15.80;;;6.10;;
30998;SDS011;20549;50.042;8.968;2022-10-04T20:22:25;7.70;;;6.50;;
30998;SDS011;20549;50.042;8.968;2022-10-04T20:34:53;4.80;;;3.70;;
30998;SDS011;20549;50.042;8.968;2022-10-04T20:37:19;5.67;;;3.67;;
30998;SDS011;20549;50.042;8.968;2022-10-04T20:47:36;9.57;;;5.57;;
30998;SDS011;20549;50.042;8.968;2022-10-04T20:50:50;7.93;;;5.40;;
30998;SDS011;20549;50.042;8.968;2022-10-04T20:52:33;8.13;;;6.10;;
30998;SDS011;20549;50.042;8.968;2022-10-04T20:54:59;7.90;;;4.80;;
30998;SDS011;20549;50.042;8.968;2022-10-04T20:57:24;8.63;;;5.40;;
30998;SDS011;20549;50.042;8.968;2022-10-04T20:59:51;6.53;;;4.87;;
30998;SDS011;20549;50.042;8.968;2022-10-04T21:02:21;5.50;;;4.60;;
30998;SDS011;20549;50.042;8.968;2022-10-04T21:04:47;4.77;;;4.00;;
30998;SDS011;20549;50.042;8.968;2022-10-04T21:07:17;6.90;;;4.53;;
30998;SDS011;20549;50.042;8.968;2022-10-04T21:09:43;6.37;;;4.13;;
30998;SDS011;20549;50.042;8.968;2022-10-04T21:17:42;4.63;;;4.10;;
30998;SDS011;20549;50.042;8.968;2022-10-04T21:20:12;4.63;;;4.23;;
30998;SDS011;20549;50.042;8.968;2022-10-04T21:22:38;6.57;;;4.10;;
30998;SDS011;20549;50.042;8.968;2022-10-04T21:25:24;6.53;;;4.50;;
30998;SDS011;20549;50.042;8.968;2022-10-04T21:27:32;5.00;;;4.47;;
30998;SDS011;20549;50.042;8.968;2022-10-04T21:29:58;4.80;;;4.30;;
30998;SDS011;20549;50.042;8.968;2022-10-04T21:32:31;5.40;;;4.90;;
30998;SDS011;20549;50.042;8.968;2022-10-04T21:34:53;4.77;;;4.27;;
30998;SDS011;20549;50.042;8.968;2022-10-04T21:37:20;5.33;;;4.00;;
30998;SDS011;20549;50.042;8.968;2022-10-04T21:39:47;4.93;;;4.27;;
30998;SDS011;20549;50.042;8.968;2022-10-04T21:42:13;5.17;;;4.47;;
30998;SDS011;20549;50.042;8.968;2022-10-04T21:44:40;5.10;;;4.20;;
30998;SDS011;20549;50.042;8.968;2022-10-04T21:47:06;4.13;;;3.73;;
30998;SDS011;20549;50.042;8.968;2022-10-04T21:49:33;4.73;;;4.10;;
30998;SDS011;20549;50.042;8.968;2022-10-04T21:52:00;4.90;;;4.37;;
30998;SDS011;20549;50.042;8.968;2022-10-04T21:54:26;6.90;;;5.23;;
30998;SDS011;20549;50.042;8.968;2022-10-04T21:56:53;4.60;;;4.13;;
30998;SDS011;20549;50.042;8.968;2022-10-04T21:59:19;6.67;;;4.03;;
30998;SDS011;20549;50.042;8.968;2022-10-04T22:01:46;4.13;;;3.63;;
30998;SDS011;20549;50.042;8.968;2022-10-04T22:04:12;4.30;;;3.90;;
30998;SDS011;20549;50.042;8.968;2022-10-04T22:06:39;4.70;;;3.50;;
30998;SDS011;20549;50.042;8.968;2022-10-04T22:09:06;4.17;;;3.70;;
30998;SDS011;20549;50.042;8.968;2022-10-04T22:11:32;6.30;;;4.30;;
30998;SDS011;20549;50.042;8.968;2022-10-04T22:13:59;6.40;;;3.97;;
30998;SDS011;20549;50.042;8.968;2022-10-04T22:16:25;5.57;;;4.23;;
30998;SDS011;20549;50.042;8.968;2022-10-04T22:18:52;4.60;;;4.13;;
30998;SDS011;20549;50.042;8.968;2022-10-04T22:21:19;4.93;;;4.40;;
30998;SDS011;20549;50.042;8.968;2022-10-04T22:23:45;6.23;;;4.07;;
30998;SDS011;20549;50.042;8.968;2022-10-04T22:26:16;5.40;;;4.23;;
30998;SDS011;20549;50.042;8.968;2022-10-04T22:28:48;7.70;;;4.33;;
30998;SDS011;20549;50.042;8.968;2022-10-04T22:31:15;4.60;;;4.17;;
30998;SDS011;20549;50.042;8.968;2022-10-04T22:33:41;4.80;;;3.97;;
30998;SDS011;20549;50.042;8.968;2022-10-04T22:41:34;6.63;;;4.90;;
30998;SDS011;20549;50.042;8.968;2022-10-04T22:44:46;5.77;;;4.43;;
30998;SDS011;20549;50.042;8.968;2022-10-04T22:46:38;4.67;;;4.03;;
30998;SDS011;20549;50.042;8.968;2022-10-04T22:49:11;4.60;;;4.20;;
30998;SDS011;20549;50.042;8.968;2022-10-04T22:51:38;4.13;;;3.83;;
30998;SDS011;20549;50.042;8.968;2022-10-04T22:54:08;7.13;;;4.80;;
30998;SDS011;20549;50.042;8.968;2022-10-04T22:56:30;5.20;;;4.70;;
30998;SDS011;20549;50.042;8.968;2022-10-04T22:58:56;4.70;;;4.03;;